Timeline UpdatesTrip UpdatesNews PostsPvt PostsTravel TipsAdmin PostsConv PostsFollowed PostsChat RequestsBlog PostsPNR Posts

Disclaimer
Search
 
 
Fri Sep 19, 2014 07:18:38 ISTHomeTrainsΣChainsAtlasPNRForumGalleryNewsFAQTripsMembersLoginFeedback
No Recent News for this Train
Other Trains in the News **new
Latest...
.
Sat Feb 02, 2013 (04:10PM)
⇐ Return Journey: Train# 51187

51188/Katni - Bhusaval Passenger (UnReserved)

Time-Table HAS CHANGED.
Sep 05 (2:13PM)
Change Departure Station:
Change Arrival Station:
Post a Train Travel TipPost a Train Travel Tip **new
Post a Comment/Question/Picture/VideoPost a Comment/Question/Picture/Video
Pantry/Catering
✕ NO Pantry Car
✕ NO Catering
RSA - Rake Sharing
Rake/Coach Composition
Loco
KTE-ET: KTE/ET WDM-3A ET-BSL: BSL/ET WAP-4
News    PNR    Forum    Time-Table    Availability    Fare Chart    Map    Arr/Dep History    Trips    Gallery    ΣChains    X/O    Timeline    
Travel Time: 16h 14m    64 halts    Distance: 569 km    Avg Speed: 35 km/hr
Type: Passenger
Zone: CR/Central
Departs @ 22:20
Platform# 5
SMTWTFS
Katni Junction/KTE 
Arrives @ 14:34 +1 night
Platform# ???
SMTWTFS
Chandni/CDI 

64 halts. 70 intermediate Stations between Katni Junction and Chandni

Show ALL intermediate Stations  Show Old Time-Table

#CodeStation NameX/OArrivesAvgDepartsAvgHaltPFDay#KmSpeedElevZoneAddress
1KTEKatni Junction (6)»  -22:20-510.032387mWCRKatni, Madhya Pradesh
2MDRRMadhavnagar Road (2)  22:30-22:31-1m--15.347398mWCRMadhavnagar, Madhya Pradesh
3NWRNiwar (2)X  22:41-22:42-1m--113.252412mWCRPipraundh, Madhya Pradesh
4SNRRSansarpur (2)X  22:51-22:52-1m--120.959436mWCRNational Highway 7, Madhya Pradesh
5SBDSleemanabad Road (2)  22:59-23:00-1m--127.857434mWCRSleemanabad, Madhya Pradesh
6DDCEDundi (2)  23:10-23:11-1m--137.360415mWCRDundi, Madhya Pradesh
7SHRSihora Road (2)X  23:26-23:28-2m--152.361388mWCRJabalpur, Madhya Pradesh
8GSPRGosalpur (2)X  23:39-23:40-1m--163.457396mWCRJabalpur, Madhya Pradesh
9DOEDeori (2)  23:51-23:52-1m--173.948392mWCRJabalpur, Madhya Pradesh
10ADTLAdhartal (2)  00:03-00:04-1m--282.782393mWCRJabalpur, Madhya Pradesh
11JBPJabalpur Junction (4)X  00:20 00:10-00:30 00:20-10m1290.914416mWCRJabalpur, Madhya Pradesh
12MMLMadan Mahal (3)  00:34-00:36-2m1294.256428mWCRJabalpur, Madhya Pradesh
13BRGTBheraghat (2)  00:50-00:51-1m--2107.352389mWCRBheraghat, Madhya Pradesh
14BHTNBhitoni (2)X  01:04 01:06-01:05 01:08-1 2m--2120.469377mWCRJabalpur, Madhya Pradesh
15BMRBikrampur (2)  01:17 01:18-01:18 01:20-1 2m--2132.059353mWCRBikrampur Dist Narsingpur., Madhya Pradesh
16SRIDShridham (3)X  01:29 01:32-01:31 01:34-2m32143.766373mWCRShridham, Madhya Pradesh
17KKBKarak Bel (2)O  01:48-01:49-1m--2159.229375mWCRKarak Bel, Madhya Pradesh
18BELDBelkhera (2)  01:58-01:59-1m--2163.633367mWCRState Highway 22, Madhya Pradesh
19GPCGhatpindrai (2)  02:09-02:10-1m--2169.135366mWCRGhatpindra, Madhya Pradesh
20NUNarsinghpur (2)X  02:20-02:22-2m22174.968365mWCRNarsimhapur, Madhya Pradesh
21KYKareli (2)X  02:36-02:37-1m22190.747361mWCRKareli, Madhya Pradesh
22KFYKarapgaon (2)X  02:48-02:49-1m--2199.347363mWCRNational Highway 26, Madhya Pradesh
23BNEBohani (2)XO  02:58-02:59-1m--2206.378361mWCRNarsinghpur, Madhya Pradesh
24GARGadarwara (2)XO  03:09-03:10-1m22219.256352mWCRNarsinghpur, Madhya Pradesh
25SCKRSalichauka Road (2)X  03:25-03:26-1m--2233.161355mWCRGadarwara, Madhya Pradesh
26JHTJunehta (2)  03:36-03:37-1m--2243.351353mWCRState Highway 22, Madhya Pradesh
27BKHBankhedi (2)X  03:44-03:46-2m--2249.269351mWCRBankheri, Madhya Pradesh
28PPIPipariya (3)X  04:03-04:05-2m32268.640338mWCRPiparia, Madhya Pradesh
29SXFSobhapur (2)X  04:18-04:19-1m--2277.245338mWCRState Highway 22, Madhya Pradesh
30SGPSohagpur (2)X  04:31-04:33-2m--2286.343340mWCRSohagpur, Madhya Pradesh
31GMDGuramkhedi (2)  04:47-04:48-1m--2296.449337mWCRGuramkhedi, Madhya Pradesh
32BGTABagratawa (2)  05:04-05:05-1m--2309.429338mWCRBagra Tawa, Madhya Pradesh
33SQLSontalai (2)X  05:19-05:20-1m--2316.327329mWCRItarsi, Madhya Pradesh
34GROGurra (2)X  05:40-05:41-1m--2325.316327mWCRItarsi, Madhya Pradesh
35ETItarsi Junction (7)  06:20-06:45-25m--2335.857329mWCRItarsi 461111, Madhya Pradesh
36DRADularia (2)  06:58-06:59-1m--2348.142318mWCRItarsi, Madhya Pradesh
37KTZKhutwansa (2)X  07:07-07:08-1m--2353.755325mWCRSH 15, Madhya Pradesh
38DKIDharamkundi (2)O  07:17 07:16-07:18-1 2m--2361.131314mWCRSH 15, Madhya Pradesh
39BPFBanapura (2)  07:34-07:35-1m--2369.349314mWCRBanapura, Madhya Pradesh
40BIFBhaironpur (2)O  07:44-07:45-1m--2376.649322mWCRSH 15, Madhya Pradesh
41PGLPagdhal (2)X  07:54-07:55-1m--2383.941317mWCRPagdhal, Madhya Pradesh
42CGOChhidgaon (2)X  08:01-08:02-1m--2388.026309mWCRHarda, Madhya Pradesh
43TBNTimarni (2)  08:24-08:25-1m--2397.547308mWCRTimarni, Madhya Pradesh
44CRKCharkhera (2)XO  08:34-08:35-1m--2404.623298mWCRBarkalan, Madhya Pradesh
45HDHarda (3)X  08:53-08:55-2m--2411.674289mWCRHarda, Madhya Pradesh
46PALPalasner (2)  09:02 09:01-09:03-1 2m--2419.044296mWCRHarda, Madhya Pradesh
47MUOMasangaon (2)XO  09:12 09:11-09:13-1 2m--2425.012303mWCRSH 15, Madhya Pradesh
48BRIBhiringi (2)  09:39 09:38-09:40-1 2m--2430.1133294mWCRSH 15, Madhya Pradesh
49KROKurawan (2)X  09:44 09:43-09:45-1 2m--2436.829297mWCRSH 15, Madhya Pradesh
50KKNKhirkiya (2)O  09:58-10:00-2m12443.241281mWCRSH 15, Madhya Pradesh
51DRHIDagarhkeri (2)XO  10:17 10:16-10:18-1 2m--2454.121274mWCRState Highway 15, Madhya Pradesh
52BRUDBarud (2)X  10:47 10:46-10:48-1 2m--2463.776273mWCRKhandwa, Madhya Pradesh
53CAERChhanera (2)XO  10:56-10:58-2m--2473.923283mWCRChhanera, Madhya Pradesh
54CKKDCharkheda Khurd (2)  11:17 11:16-11:18-1 2m--2480.624274mWCRKhandwa, Madhya Pradesh
55SGBJSurgaon Banjari (2)  11:47 11:46-11:48-1 2m--2491.871298mWCRKhandwa, Madhya Pradesh
56TLVTalvadiya (2)  11:58-12:00-2m--2503.563308mWCRKhandwa, Madhya Pradesh
57MTAMathela (2)XO  12:09 12:08-12:10-1 2m--2511.96322mWCRKhandwa, Madhya Pradesh
58KNWKhandwa Junction (5)  13:20-13:30-10m--2519.344310mCRKhandwa, Madhya Pradesh
59BRGJBargaon Gujar (2)  13:37-13:38-1m--2524.460316mCRKhandwa, Madhya Pradesh
60BMABagmar (2)X  13:44-13:45-1m--2530.466335mCRState Highway 27, Madhya Pradesh
61KDKKohdad (2)X  13:49-13:50-1m--2534.857344mCRState Highway 15, Madhya Pradesh
62DGNDongargaon (2)  13:58-13:59-1m12542.458373mCRBorgaon, Madhya Pradesh
63SXASagphata (2)  14:07-14:08-1m--2550.151350mCRKhandwa, Madhya Pradesh
64MWAMandwa (2)X  14:15-14:16-1m--2556.144317mCRState Highway 27, Madhya Pradesh
65NPNRNepanagar (2)  14:24-14:26-2m--2561.953289mCRState Highway 27, Madhya Pradesh
66CDIChandni (2)•X  14:34-14:35-1m--2569.077276mCRNepanagar Rd, Madhya Pradesh
67AGQAsirgarh Road (2)  14:43-14:44-1m--2579.267259mCRState Highway 27, Madhya Pradesh
68BAUBurhanpur (2)X  14:52-14:55-3m12588.162269mCRBurhanpur, Madhya Pradesh
69WGAWaghodaX  15:05-15:06-1m--2598.460259mCRChorwad, Maharashtra
70RVRaver (2)X  15:16-15:18-2m--2608.368242mCRJalgaon, Maharashtra
71NBNimbhora (2)X  15:27-15:28-1m--2618.558229mCRJalgaon, Maharashtra
72SAVSavda (2)  15:37-15:38-1m--2627.258220mCRSavda, Maharashtra
73DSKDuskheda (2)X  15:47-15:48-1m--2635.96213mCRDuskheda Station, Maharashtra
74BSLBhusaval Junction (8)  17:00--62642.6-208mCRBhusaval 425201, Maharashtra
Scroll to Top
Scroll to Bottom